sensor_id;sensor_type;location;lat;lon;timestamp;P1;durP1;ratioP1;P2;durP2;ratioP2
9898;SDS011;4988;49.238;6.698;2023-06-14T00:00:16;12.17;;;6.70;;
9898;SDS011;4988;49.238;6.698;2023-06-14T00:02:42;10.53;;;6.80;;
9898;SDS011;4988;49.238;6.698;2023-06-14T00:05:07;14.03;;;6.77;;
9898;SDS011;4988;49.238;6.698;2023-06-14T00:07:38;13.67;;;6.93;;
9898;SDS011;4988;49.238;6.698;2023-06-14T00:10:07;12.60;;;7.10;;
9898;SDS011;4988;49.238;6.698;2023-06-14T00:12:33;13.10;;;6.70;;
9898;SDS011;4988;49.238;6.698;2023-06-14T00:14:59;11.73;;;6.43;;
9898;SDS011;4988;49.238;6.698;2023-06-14T00:17:26;12.20;;;6.77;;
9898;SDS011;4988;49.238;6.698;2023-06-14T00:19:55;11.50;;;7.03;;
9898;SDS011;4988;49.238;6.698;2023-06-14T00:22:21;12.80;;;6.93;;
9898;SDS011;4988;49.238;6.698;2023-06-14T00:24:49;10.13;;;6.10;;
9898;SDS011;4988;49.238;6.698;2023-06-14T00:27:15;15.50;;;6.47;;
9898;SDS011;4988;49.238;6.698;2023-06-14T00:29:40;9.03;;;6.23;;
9898;SDS011;4988;49.238;6.698;2023-06-14T00:32:06;10.03;;;6.37;;
9898;SDS011;4988;49.238;6.698;2023-06-14T00:34:31;9.07;;;6.43;;
9898;SDS011;4988;49.238;6.698;2023-06-14T00:36:56;11.70;;;6.80;;
9898;SDS011;4988;49.238;6.698;2023-06-14T00:39:22;12.40;;;6.30;;
9898;SDS011;4988;49.238;6.698;2023-06-14T00:41:47;11.07;;;6.07;;
9898;SDS011;4988;49.238;6.698;2023-06-14T00:44:13;12.30;;;6.70;;
9898;SDS011;4988;49.238;6.698;2023-06-14T00:46:41;9.97;;;6.70;;
9898;SDS011;4988;49.238;6.698;2023-06-14T00:49:06;13.10;;;7.40;;
9898;SDS011;4988;49.238;6.698;2023-06-14T00:51:32;9.90;;;6.60;;
9898;SDS011;4988;49.238;6.698;2023-06-14T00:53:57;10.23;;;7.10;;
9898;SDS011;4988;49.238;6.698;2023-06-14T00:56:22;9.93;;;6.30;;
9898;SDS011;4988;49.238;6.698;2023-06-14T00:58:48;13.60;;;7.03;;
9898;SDS011;4988;49.238;6.698;2023-06-14T01:01:14;11.97;;;6.50;;
9898;SDS011;4988;49.238;6.698;2023-06-14T01:03:40;10.20;;;6.93;;
9898;SDS011;4988;49.238;6.698;2023-06-14T01:06:08;12.00;;;7.30;;
9898;SDS011;4988;49.238;6.698;2023-06-14T01:09:03;12.33;;;6.67;;
9898;SDS011;4988;49.238;6.698;2023-06-14T01:11:41;14.27;;;7.10;;
9898;SDS011;4988;49.238;6.698;2023-06-14T01:14:15;9.57;;;6.60;;
9898;SDS011;4988;49.238;6.698;2023-06-14T01:16:42;16.00;;;7.57;;
9898;SDS011;4988;49.238;6.698;2023-06-14T01:19:10;19.13;;;7.80;;
9898;SDS011;4988;49.238;6.698;2023-06-14T01:21:38;10.80;;;7.43;;
9898;SDS011;4988;49.238;6.698;2023-06-14T01:24:06;13.10;;;7.40;;
9898;SDS011;4988;49.238;6.698;2023-06-14T01:26:36;11.07;;;7.13;;
9898;SDS011;4988;49.238;6.698;2023-06-14T01:29:03;10.80;;;6.57;;
9898;SDS011;4988;49.238;6.698;2023-06-14T01:31:29;12.77;;;7.30;;
9898;SDS011;4988;49.238;6.698;2023-06-14T01:34:04;11.20;;;7.40;;
9898;SDS011;4988;49.238;6.698;2023-06-14T01:36:30;9.10;;;6.60;;
9898;SDS011;4988;49.238;6.698;2023-06-14T01:38:55;11.73;;;7.37;;
9898;SDS011;4988;49.238;6.698;2023-06-14T01:41:21;13.43;;;7.57;;
9898;SDS011;4988;49.238;6.698;2023-06-14T01:43:47;11.03;;;7.17;;
9898;SDS011;4988;49.238;6.698;2023-06-14T01:46:14;12.13;;;7.10;;
9898;SDS011;4988;49.238;6.698;2023-06-14T01:48:40;10.33;;;6.97;;
9898;SDS011;4988;49.238;6.698;2023-06-14T01:51:06;10.90;;;6.90;;
9898;SDS011;4988;49.238;6.698;2023-06-14T01:53:31;10.73;;;7.13;;
9898;SDS011;4988;49.238;6.698;2023-06-14T01:55:57;11.23;;;7.23;;
9898;SDS011;4988;49.238;6.698;2023-06-14T01:58:23;10.53;;;6.90;;
9898;SDS011;4988;49.238;6.698;2023-06-14T02:00:48;15.63;;;8.37;;
9898;SDS011;4988;49.238;6.698;2023-06-14T02:03:14;11.17;;;7.37;;
9898;SDS011;4988;49.238;6.698;2023-06-14T02:05:40;14.07;;;7.73;;
9898;SDS011;4988;49.238;6.698;2023-06-14T02:08:06;14.17;;;8.37;;
9898;SDS011;4988;49.238;6.698;2023-06-14T02:10:32;15.83;;;7.60;;
9898;SDS011;4988;49.238;6.698;2023-06-14T02:12:57;16.07;;;7.90;;
9898;SDS011;4988;49.238;6.698;2023-06-14T02:15:22;15.77;;;8.00;;
9898;SDS011;4988;49.238;6.698;2023-06-14T02:17:48;13.63;;;7.73;;
9898;SDS011;4988;49.238;6.698;2023-06-14T02:20:14;13.53;;;7.90;;
9898;SDS011;4988;49.238;6.698;2023-06-14T02:22:40;11.67;;;7.80;;
9898;SDS011;4988;49.238;6.698;2023-06-14T02:25:05;12.73;;;8.07;;
9898;SDS011;4988;49.238;6.698;2023-06-14T02:27:32;13.93;;;7.80;;
9898;SDS011;4988;49.238;6.698;2023-06-14T02:29:58;13.13;;;8.13;;
9898;SDS011;4988;49.238;6.698;2023-06-14T02:32:23;13.87;;;8.13;;
9898;SDS011;4988;49.238;6.698;2023-06-14T02:34:49;11.07;;;8.07;;
9898;SDS011;4988;49.238;6.698;2023-06-14T02:37:15;12.90;;;8.03;;
9898;SDS011;4988;49.238;6.698;2023-06-14T02:39:41;13.13;;;8.03;;
9898;SDS011;4988;49.238;6.698;2023-06-14T02:42:06;12.70;;;7.77;;
9898;SDS011;4988;49.238;6.698;2023-06-14T02:44:32;11.93;;;7.97;;
9898;SDS011;4988;49.238;6.698;2023-06-14T02:46:57;14.77;;;7.63;;
9898;SDS011;4988;49.238;6.698;2023-06-14T02:49:23;11.73;;;7.63;;
9898;SDS011;4988;49.238;6.698;2023-06-14T02:51:49;12.00;;;7.83;;
9898;SDS011;4988;49.238;6.698;2023-06-14T02:54:15;11.17;;;7.57;;
9898;SDS011;4988;49.238;6.698;2023-06-14T02:56:40;14.40;;;8.07;;
9898;SDS011;4988;49.238;6.698;2023-06-14T02:59:06;13.93;;;7.67;;
9898;SDS011;4988;49.238;6.698;2023-06-14T03:01:32;11.37;;;7.37;;
9898;SDS011;4988;49.238;6.698;2023-06-14T03:04:01;13.57;;;7.87;;
9898;SDS011;4988;49.238;6.698;2023-06-14T03:06:28;12.57;;;7.93;;
9898;SDS011;4988;49.238;6.698;2023-06-14T03:08:55;11.03;;;7.70;;
9898;SDS011;4988;49.238;6.698;2023-06-14T03:11:24;10.90;;;7.43;;
9898;SDS011;4988;49.238;6.698;2023-06-14T03:13:50;12.23;;;8.20;;
9898;SDS011;4988;49.238;6.698;2023-06-14T03:16:16;16.00;;;7.80;;
9898;SDS011;4988;49.238;6.698;2023-06-14T03:18:42;18.83;;;7.93;;
9898;SDS011;4988;49.238;6.698;2023-06-14T03:21:07;16.60;;;8.13;;
9898;SDS011;4988;49.238;6.698;2023-06-14T03:23:33;12.83;;;7.90;;
9898;SDS011;4988;49.238;6.698;2023-06-14T03:25:59;11.50;;;7.50;;
9898;SDS011;4988;49.238;6.698;2023-06-14T03:28:24;14.40;;;7.60;;
9898;SDS011;4988;49.238;6.698;2023-06-14T03:30:50;14.93;;;8.23;;
9898;SDS011;4988;49.238;6.698;2023-06-14T03:33:16;15.10;;;8.10;;
9898;SDS011;4988;49.238;6.698;2023-06-14T03:35:41;12.93;;;7.87;;
9898;SDS011;4988;49.238;6.698;2023-06-14T03:38:07;11.93;;;7.53;;
9898;SDS011;4988;49.238;6.698;2023-06-14T03:40:32;13.23;;;7.57;;
9898;SDS011;4988;49.238;6.698;2023-06-14T03:42:58;12.97;;;7.80;;
9898;SDS011;4988;49.238;6.698;2023-06-14T03:45:23;10.60;;;7.03;;
9898;SDS011;4988;49.238;6.698;2023-06-14T03:47:48;12.57;;;7.50;;
9898;SDS011;4988;49.238;6.698;2023-06-14T03:50:13;12.53;;;7.90;;
9898;SDS011;4988;49.238;6.698;2023-06-14T03:52:40;13.43;;;7.60;;
9898;SDS011;4988;49.238;6.698;2023-06-14T03:55:07;12.33;;;7.50;;
9898;SDS011;4988;49.238;6.698;2023-06-14T03:57:33;12.07;;;7.30;;
9898;SDS011;4988;49.238;6.698;2023-06-14T03:59:58;13.77;;;7.07;;
9898;SDS011;4988;49.238;6.698;2023-06-14T04:02:23;12.33;;;7.73;;
9898;SDS011;4988;49.238;6.698;2023-06-14T04:04:50;10.80;;;7.10;;
9898;SDS011;4988;49.238;6.698;2023-06-14T04:07:16;12.63;;;7.57;;
9898;SDS011;4988;49.238;6.698;2023-06-14T04:09:44;12.73;;;7.33;;
9898;SDS011;4988;49.238;6.698;2023-06-14T04:12:10;14.03;;;7.60;;
9898;SDS011;4988;49.238;6.698;2023-06-14T04:14:36;15.40;;;7.27;;
9898;SDS011;4988;49.238;6.698;2023-06-14T04:17:03;11.90;;;7.13;;
9898;SDS011;4988;49.238;6.698;2023-06-14T04:19:28;11.90;;;7.30;;
9898;SDS011;4988;49.238;6.698;2023-06-14T04:21:54;13.27;;;7.10;;
9898;SDS011;4988;49.238;6.698;2023-06-14T04:24:19;13.87;;;7.07;;
9898;SDS011;4988;49.238;6.698;2023-06-14T04:26:45;14.13;;;7.23;;
9898;SDS011;4988;49.238;6.698;2023-06-14T04:29:12;12.30;;;7.30;;
9898;SDS011;4988;49.238;6.698;2023-06-14T04:31:44;15.53;;;7.70;;
9898;SDS011;4988;49.238;6.698;2023-06-14T04:34:10;13.10;;;7.40;;
9898;SDS011;4988;49.238;6.698;2023-06-14T04:36:41;11.27;;;7.77;;
9898;SDS011;4988;49.238;6.698;2023-06-14T04:39:14;11.53;;;6.93;;
9898;SDS011;4988;49.238;6.698;2023-06-14T04:41:48;14.23;;;7.20;;
9898;SDS011;4988;49.238;6.698;2023-06-14T04:44:18;14.77;;;7.17;;
9898;SDS011;4988;49.238;6.698;2023-06-14T04:46:45;17.70;;;7.03;;
9898;SDS011;4988;49.238;6.698;2023-06-14T04:49:11;13.37;;;7.17;;
9898;SDS011;4988;49.238;6.698;2023-06-14T04:51:40;13.33;;;7.30;;
9898;SDS011;4988;49.238;6.698;2023-06-14T04:54:06;14.57;;;7.30;;
9898;SDS011;4988;49.238;6.698;2023-06-14T04:56:35;14.73;;;7.87;;
9898;SDS011;4988;49.238;6.698;2023-06-14T04:59:02;10.20;;;7.17;;
9898;SDS011;4988;49.238;6.698;2023-06-14T05:01:29;10.43;;;7.80;;
9898;SDS011;4988;49.238;6.698;2023-06-14T05:03:56;12.97;;;7.60;;
9898;SDS011;4988;49.238;6.698;2023-06-14T05:06:22;12.57;;;7.63;;
9898;SDS011;4988;49.238;6.698;2023-06-14T05:08:47;14.73;;;6.83;;
9898;SDS011;4988;49.238;6.698;2023-06-14T05:11:13;11.77;;;7.10;;
9898;SDS011;4988;49.238;6.698;2023-06-14T05:13:38;11.10;;;6.90;;
9898;SDS011;4988;49.238;6.698;2023-06-14T05:16:04;9.87;;;6.90;;
9898;SDS011;4988;49.238;6.698;2023-06-14T05:18:31;12.00;;;7.27;;
9898;SDS011;4988;49.238;6.698;2023-06-14T05:20:59;11.13;;;6.80;;
9898;SDS011;4988;49.238;6.698;2023-06-14T05:23:24;10.97;;;6.83;;
9898;SDS011;4988;49.238;6.698;2023-06-14T05:25:50;10.07;;;6.90;;
9898;SDS011;4988;49.238;6.698;2023-06-14T05:28:15;10.53;;;6.37;;
9898;SDS011;4988;49.238;6.698;2023-06-14T05:30:41;10.70;;;6.50;;
9898;SDS011;4988;49.238;6.698;2023-06-14T05:33:06;11.57;;;6.13;;
9898;SDS011;4988;49.238;6.698;2023-06-14T05:35:32;11.83;;;6.37;;
9898;SDS011;4988;49.238;6.698;2023-06-14T05:37:57;12.23;;;6.40;;
9898;SDS011;4988;49.238;6.698;2023-06-14T05:40:23;11.33;;;6.30;;
9898;SDS011;4988;49.238;6.698;2023-06-14T05:42:48;12.60;;;6.73;;
9898;SDS011;4988;49.238;6.698;2023-06-14T05:45:13;14.23;;;6.60;;
9898;SDS011;4988;49.238;6.698;2023-06-14T05:47:40;10.33;;;5.97;;
9898;SDS011;4988;49.238;6.698;2023-06-14T05:50:07;9.50;;;6.13;;
9898;SDS011;4988;49.238;6.698;2023-06-14T05:52:33;12.17;;;6.67;;
9898;SDS011;4988;49.238;6.698;2023-06-14T05:54:59;16.03;;;6.63;;
9898;SDS011;4988;49.238;6.698;2023-06-14T05:57:24;9.77;;;6.13;;
9898;SDS011;4988;49.238;6.698;2023-06-14T05:59:50;11.50;;;6.50;;
9898;SDS011;4988;49.238;6.698;2023-06-14T06:02:16;13.83;;;6.77;;
9898;SDS011;4988;49.238;6.698;2023-06-14T06:04:41;13.30;;;6.17;;
9898;SDS011;4988;49.238;6.698;2023-06-14T06:07:06;11.47;;;6.10;;
9898;SDS011;4988;49.238;6.698;2023-06-14T06:09:32;12.80;;;6.73;;
9898;SDS011;4988;49.238;6.698;2023-06-14T06:11:58;9.93;;;6.37;;
9898;SDS011;4988;49.238;6.698;2023-06-14T06:14:23;10.30;;;6.07;;
9898;SDS011;4988;49.238;6.698;2023-06-14T06:16:48;11.93;;;6.50;;
9898;SDS011;4988;49.238;6.698;2023-06-14T06:19:14;11.77;;;6.03;;
9898;SDS011;4988;49.238;6.698;2023-06-14T06:21:39;13.30;;;6.13;;
9898;SDS011;4988;49.238;6.698;2023-06-14T06:24:05;12.67;;;6.00;;
9898;SDS011;4988;49.238;6.698;2023-06-14T06:26:31;11.53;;;6.40;;
9898;SDS011;4988;49.238;6.698;2023-06-14T06:28:57;12.97;;;6.20;;
9898;SDS011;4988;49.238;6.698;2023-06-14T06:31:23;11.20;;;6.77;;
9898;SDS011;4988;49.238;6.698;2023-06-14T06:33:49;13.63;;;6.40;;
9898;SDS011;4988;49.238;6.698;2023-06-14T06:36:15;15.63;;;6.47;;
9898;SDS011;4988;49.238;6.698;2023-06-14T06:38:40;17.33;;;6.33;;
9898;SDS011;4988;49.238;6.698;2023-06-14T06:41:06;10.47;;;6.07;;
9898;SDS011;4988;49.238;6.698;2023-06-14T06:43:31;11.20;;;5.97;;
9898;SDS011;4988;49.238;6.698;2023-06-14T06:45:56;9.57;;;5.73;;
9898;SDS011;4988;49.238;6.698;2023-06-14T06:48:22;11.83;;;5.93;;
9898;SDS011;4988;49.238;6.698;2023-06-14T06:50:47;12.00;;;6.57;;
9898;SDS011;4988;49.238;6.698;2023-06-14T06:53:12;9.80;;;6.13;;
9898;SDS011;4988;49.238;6.698;2023-06-14T06:55:38;8.53;;;5.37;;
9898;SDS011;4988;49.238;6.698;2023-06-14T06:58:03;11.00;;;6.00;;
9898;SDS011;4988;49.238;6.698;2023-06-14T07:00:30;8.50;;;5.70;;
9898;SDS011;4988;49.238;6.698;2023-06-14T07:02:55;12.03;;;6.10;;
9898;SDS011;4988;49.238;6.698;2023-06-14T07:05:21;12.03;;;6.10;;
9898;SDS011;4988;49.238;6.698;2023-06-14T07:07:47;11.87;;;5.80;;
9898;SDS011;4988;49.238;6.698;2023-06-14T07:10:12;12.27;;;5.37;;
9898;SDS011;4988;49.238;6.698;2023-06-14T07:12:38;11.03;;;5.77;;
9898;SDS011;4988;49.238;6.698;2023-06-14T07:15:05;9.97;;;5.60;;
9898;SDS011;4988;49.238;6.698;2023-06-14T07:17:31;9.40;;;5.93;;
9898;SDS011;4988;49.238;6.698;2023-06-14T07:19:57;11.03;;;5.70;;
9898;SDS011;4988;49.238;6.698;2023-06-14T07:22:23;10.80;;;5.60;;
9898;SDS011;4988;49.238;6.698;2023-06-14T07:24:48;9.80;;;5.20;;
9898;SDS011;4988;49.238;6.698;2023-06-14T07:27:13;10.30;;;5.63;;
9898;SDS011;4988;49.238;6.698;2023-06-14T07:29:39;10.57;;;5.57;;
9898;SDS011;4988;49.238;6.698;2023-06-14T07:32:05;9.47;;;5.37;;
9898;SDS011;4988;49.238;6.698;2023-06-14T07:34:30;9.10;;;5.47;;
9898;SDS011;4988;49.238;6.698;2023-06-14T07:36:56;13.43;;;5.33;;
9898;SDS011;4988;49.238;6.698;2023-06-14T07:39:21;8.50;;;5.47;;
9898;SDS011;4988;49.238;6.698;2023-06-14T07:41:47;8.97;;;5.43;;
9898;SDS011;4988;49.238;6.698;2023-06-14T07:44:12;13.20;;;5.40;;
9898;SDS011;4988;49.238;6.698;2023-06-14T07:46:38;10.13;;;5.70;;
9898;SDS011;4988;49.238;6.698;2023-06-14T07:49:03;10.00;;;5.47;;
9898;SDS011;4988;49.238;6.698;2023-06-14T07:51:30;10.57;;;5.07;;
9898;SDS011;4988;49.238;6.698;2023-06-14T07:53:55;12.47;;;5.63;;
9898;SDS011;4988;49.238;6.698;2023-06-14T07:56:21;10.30;;;5.30;;
9898;SDS011;4988;49.238;6.698;2023-06-14T07:58:46;12.07;;;5.43;;
9898;SDS011;4988;49.238;6.698;2023-06-14T08:01:12;11.57;;;5.63;;
9898;SDS011;4988;49.238;6.698;2023-06-14T08:03:38;12.93;;;5.63;;
9898;SDS011;4988;49.238;6.698;2023-06-14T08:06:03;11.13;;;5.53;;
9898;SDS011;4988;49.238;6.698;2023-06-14T08:08:29;10.97;;;5.87;;
9898;SDS011;4988;49.238;6.698;2023-06-14T08:10:55;11.33;;;5.83;;
9898;SDS011;4988;49.238;6.698;2023-06-14T08:13:20;9.37;;;5.33;;
9898;SDS011;4988;49.238;6.698;2023-06-14T08:15:46;14.73;;;5.53;;
9898;SDS011;4988;49.238;6.698;2023-06-14T08:18:11;15.27;;;5.30;;
9898;SDS011;4988;49.238;6.698;2023-06-14T08:20:37;8.40;;;5.13;;
9898;SDS011;4988;49.238;6.698;2023-06-14T08:23:02;9.27;;;6.10;;
9898;SDS011;4988;49.238;6.698;2023-06-14T08:25:29;12.63;;;5.60;;
9898;SDS011;4988;49.238;6.698;2023-06-14T08:27:54;11.57;;;5.40;;
9898;SDS011;4988;49.238;6.698;2023-06-14T08:30:19;8.13;;;5.00;;
9898;SDS011;4988;49.238;6.698;2023-06-14T08:32:45;7.20;;;5.00;;
9898;SDS011;4988;49.238;6.698;2023-06-14T08:35:10;7.30;;;5.10;;
9898;SDS011;4988;49.238;6.698;2023-06-14T08:37:40;11.40;;;5.27;;
9898;SDS011;4988;49.238;6.698;2023-06-14T08:40:27;10.27;;;5.20;;
9898;SDS011;4988;49.238;6.698;2023-06-14T08:42:54;7.00;;;4.90;;
9898;SDS011;4988;49.238;6.698;2023-06-14T08:45:20;9.57;;;5.07;;
9898;SDS011;4988;49.238;6.698;2023-06-14T08:47:47;9.30;;;4.87;;
9898;SDS011;4988;49.238;6.698;2023-06-14T08:50:26;12.23;;;5.10;;
9898;SDS011;4988;49.238;6.698;2023-06-14T08:52:55;11.50;;;4.73;;
9898;SDS011;4988;49.238;6.698;2023-06-14T08:55:23;6.60;;;4.70;;
9898;SDS011;4988;49.238;6.698;2023-06-14T08:57:53;11.40;;;5.07;;
9898;SDS011;4988;49.238;6.698;2023-06-14T09:00:20;11.00;;;4.97;;
9898;SDS011;4988;49.238;6.698;2023-06-14T09:02:46;14.47;;;4.60;;
9898;SDS011;4988;49.238;6.698;2023-06-14T09:05:12;8.20;;;5.00;;
9898;SDS011;4988;49.238;6.698;2023-06-14T09:07:39;8.50;;;4.83;;
9898;SDS011;4988;49.238;6.698;2023-06-14T09:10:07;11.63;;;4.77;;
9898;SDS011;4988;49.238;6.698;2023-06-14T09:12:34;7.10;;;4.90;;
9898;SDS011;4988;49.238;6.698;2023-06-14T09:14:59;7.57;;;4.87;;
9898;SDS011;4988;49.238;6.698;2023-06-14T09:17:25;7.90;;;4.70;;
9898;SDS011;4988;49.238;6.698;2023-06-14T09:19:51;7.70;;;4.27;;
9898;SDS011;4988;49.238;6.698;2023-06-14T09:22:16;10.23;;;5.30;;
9898;SDS011;4988;49.238;6.698;2023-06-14T09:24:41;10.27;;;4.90;;
9898;SDS011;4988;49.238;6.698;2023-06-14T09:27:07;7.73;;;5.10;;
9898;SDS011;4988;49.238;6.698;2023-06-14T09:29:33;8.43;;;4.60;;
9898;SDS011;4988;49.238;6.698;2023-06-14T09:31:58;7.80;;;4.83;;
9898;SDS011;4988;49.238;6.698;2023-06-14T09:34:24;9.43;;;4.97;;
9898;SDS011;4988;49.238;6.698;2023-06-14T09:36:49;8.23;;;4.97;;
9898;SDS011;4988;49.238;6.698;2023-06-14T09:39:16;7.33;;;4.80;;
9898;SDS011;4988;49.238;6.698;2023-06-14T09:41:43;9.67;;;4.83;;
9898;SDS011;4988;49.238;6.698;2023-06-14T09:44:09;8.80;;;4.63;;
9898;SDS011;4988;49.238;6.698;2023-06-14T09:46:35;9.77;;;4.90;;
9898;SDS011;4988;49.238;6.698;2023-06-14T09:49:02;9.17;;;4.70;;
9898;SDS011;4988;49.238;6.698;2023-06-14T09:51:28;12.73;;;6.87;;
9898;SDS011;4988;49.238;6.698;2023-06-14T09:54:06;13.37;;;8.17;;
9898;SDS011;4988;49.238;6.698;2023-06-14T09:56:37;11.93;;;5.10;;
9898;SDS011;4988;49.238;6.698;2023-06-14T09:59:06;7.67;;;5.00;;
9898;SDS011;4988;49.238;6.698;2023-06-14T10:01:34;10.03;;;5.37;;
9898;SDS011;4988;49.238;6.698;2023-06-14T10:04:02;8.10;;;5.07;;
9898;SDS011;4988;49.238;6.698;2023-06-14T10:06:29;8.23;;;5.00;;
9898;SDS011;4988;49.238;6.698;2023-06-14T10:08:56;11.30;;;5.53;;
9898;SDS011;4988;49.238;6.698;2023-06-14T10:11:27;10.23;;;4.97;;
9898;SDS011;4988;49.238;6.698;2023-06-14T10:13:54;15.63;;;5.43;;
9898;SDS011;4988;49.238;6.698;2023-06-14T10:19:04;8.23;;;5.20;;
9898;SDS011;4988;49.238;6.698;2023-06-14T10:24:08;7.87;;;4.67;;
9898;SDS011;4988;49.238;6.698;2023-06-14T10:26:40;7.80;;;4.53;;
9898;SDS011;4988;49.238;6.698;2023-06-14T10:29:19;6.40;;;4.40;;
9898;SDS011;4988;49.238;6.698;2023-06-14T10:31:46;9.60;;;4.93;;
9898;SDS011;4988;49.238;6.698;2023-06-14T10:34:20;12.33;;;5.07;;
9898;SDS011;4988;49.238;6.698;2023-06-14T10:39:45;11.37;;;5.07;;
9898;SDS011;4988;49.238;6.698;2023-06-14T10:42:11;9.57;;;4.80;;
9898;SDS011;4988;49.238;6.698;2023-06-14T10:44:37;8.43;;;4.87;;
9898;SDS011;4988;49.238;6.698;2023-06-14T10:47:06;9.27;;;5.00;;
9898;SDS011;4988;49.238;6.698;2023-06-14T10:49:44;13.03;;;4.90;;
9898;SDS011;4988;49.238;6.698;2023-06-14T10:52:14;9.40;;;4.73;;
9898;SDS011;4988;49.238;6.698;2023-06-14T10:55:02;8.07;;;4.70;;
9898;SDS011;4988;49.238;6.698;2023-06-14T10:57:53;9.37;;;5.00;;
9898;SDS011;4988;49.238;6.698;2023-06-14T11:00:24;7.33;;;4.50;;
9898;SDS011;4988;49.238;6.698;2023-06-14T11:05:27;6.70;;;4.27;;
9898;SDS011;4988;49.238;6.698;2023-06-14T11:11:09;8.30;;;4.40;;
9898;SDS011;4988;49.238;6.698;2023-06-14T11:13:38;13.40;;;4.43;;
9898;SDS011;4988;49.238;6.698;2023-06-14T11:16:14;11.33;;;4.60;;
9898;SDS011;4988;49.238;6.698;2023-06-14T11:18:40;6.83;;;4.77;;
9898;SDS011;4988;49.238;6.698;2023-06-14T11:21:06;6.37;;;4.37;;
9898;SDS011;4988;49.238;6.698;2023-06-14T11:23:33;6.53;;;4.73;;
9898;SDS011;4988;49.238;6.698;2023-06-14T11:25:59;8.73;;;4.30;;
9898;SDS011;4988;49.238;6.698;2023-06-14T11:28:24;7.33;;;4.33;;
9898;SDS011;4988;49.238;6.698;2023-06-14T11:30:59;9.93;;;5.20;;
9898;SDS011;4988;49.238;6.698;2023-06-14T11:33:25;7.83;;;4.73;;
9898;SDS011;4988;49.238;6.698;2023-06-14T11:35:50;8.73;;;4.80;;
9898;SDS011;4988;49.238;6.698;2023-06-14T11:38:17;11.10;;;5.03;;
9898;SDS011;4988;49.238;6.698;2023-06-14T11:40:42;12.17;;;4.60;;
9898;SDS011;4988;49.238;6.698;2023-06-14T11:43:08;7.67;;;4.60;;
9898;SDS011;4988;49.238;6.698;2023-06-14T11:45:33;7.13;;;4.70;;
9898;SDS011;4988;49.238;6.698;2023-06-14T11:47:58;7.53;;;4.70;;
9898;SDS011;4988;49.238;6.698;2023-06-14T11:50:25;8.03;;;4.80;;
9898;SDS011;4988;49.238;6.698;2023-06-14T11:52:58;8.30;;;4.50;;
9898;SDS011;4988;49.238;6.698;2023-06-14T11:55:28;8.23;;;4.67;;
9898;SDS011;4988;49.238;6.698;2023-06-14T11:57:54;7.60;;;4.70;;
9898;SDS011;4988;49.238;6.698;2023-06-14T12:00:23;10.77;;;4.87;;
9898;SDS011;4988;49.238;6.698;2023-06-14T12:02:53;9.20;;;4.47;;
9898;SDS011;4988;49.238;6.698;2023-06-14T12:05:20;8.83;;;4.80;;
9898;SDS011;4988;49.238;6.698;2023-06-14T12:07:47;9.90;;;4.63;;
9898;SDS011;4988;49.238;6.698;2023-06-14T12:10:13;9.67;;;4.77;;
9898;SDS011;4988;49.238;6.698;2023-06-14T12:12:39;11.27;;;4.50;;
9898;SDS011;4988;49.238;6.698;2023-06-14T12:15:06;8.57;;;4.80;;
9898;SDS011;4988;49.238;6.698;2023-06-14T12:17:36;9.13;;;4.70;;
9898;SDS011;4988;49.238;6.698;2023-06-14T12:20:07;9.37;;;5.03;;
9898;SDS011;4988;49.238;6.698;2023-06-14T12:22:39;6.93;;;4.70;;
9898;SDS011;4988;49.238;6.698;2023-06-14T12:25:27;10.07;;;4.40;;
9898;SDS011;4988;49.238;6.698;2023-06-14T12:27:54;11.63;;;4.70;;
9898;SDS011;4988;49.238;6.698;2023-06-14T12:30:20;9.77;;;4.37;;
9898;SDS011;4988;49.238;6.698;2023-06-14T12:32:45;8.53;;;4.43;;
9898;SDS011;4988;49.238;6.698;2023-06-14T12:35:10;7.03;;;4.50;;
9898;SDS011;4988;49.238;6.698;2023-06-14T12:37:36;6.23;;;4.17;;
9898;SDS011;4988;49.238;6.698;2023-06-14T12:40:01;8.37;;;4.73;;
9898;SDS011;4988;49.238;6.698;2023-06-14T12:42:30;12.40;;;4.53;;
9898;SDS011;4988;49.238;6.698;2023-06-14T12:44:56;11.17;;;5.00;;
9898;SDS011;4988;49.238;6.698;2023-06-14T12:47:21;6.73;;;4.70;;
9898;SDS011;4988;49.238;6.698;2023-06-14T12:49:47;9.00;;;4.60;;
9898;SDS011;4988;49.238;6.698;2023-06-14T12:52:12;7.27;;;4.83;;
9898;SDS011;4988;49.238;6.698;2023-06-14T12:54:37;9.33;;;4.97;;
9898;SDS011;4988;49.238;6.698;2023-06-14T12:57:04;10.73;;;4.70;;
9898;SDS011;4988;49.238;6.698;2023-06-14T12:59:30;9.50;;;4.63;;
9898;SDS011;4988;49.238;6.698;2023-06-14T13:01:58;11.27;;;4.60;;
9898;SDS011;4988;49.238;6.698;2023-06-14T13:04:36;7.93;;;4.70;;
9898;SDS011;4988;49.238;6.698;2023-06-14T13:07:02;12.60;;;4.30;;
9898;SDS011;4988;49.238;6.698;2023-06-14T13:09:27;10.13;;;3.90;;
9898;SDS011;4988;49.238;6.698;2023-06-14T13:11:52;8.30;;;4.50;;
9898;SDS011;4988;49.238;6.698;2023-06-14T13:14:18;9.97;;;4.47;;
9898;SDS011;4988;49.238;6.698;2023-06-14T13:16:43;9.97;;;4.40;;
9898;SDS011;4988;49.238;6.698;2023-06-14T13:19:09;8.13;;;4.40;;
9898;SDS011;4988;49.238;6.698;2023-06-14T13:21:34;5.90;;;4.23;;
9898;SDS011;4988;49.238;6.698;2023-06-14T13:23:59;7.40;;;4.37;;
9898;SDS011;4988;49.238;6.698;2023-06-14T13:26:25;6.53;;;4.27;;
9898;SDS011;4988;49.238;6.698;2023-06-14T13:28:51;10.27;;;4.43;;
9898;SDS011;4988;49.238;6.698;2023-06-14T13:31:17;8.70;;;4.30;;
9898;SDS011;4988;49.238;6.698;2023-06-14T13:33:42;9.13;;;4.30;;
9898;SDS011;4988;49.238;6.698;2023-06-14T13:36:08;10.93;;;4.10;;
9898;SDS011;4988;49.238;6.698;2023-06-14T13:38:33;7.63;;;4.63;;
9898;SDS011;4988;49.238;6.698;2023-06-14T13:40:58;9.97;;;4.57;;
9898;SDS011;4988;49.238;6.698;2023-06-14T13:43:24;11.13;;;4.43;;
9898;SDS011;4988;49.238;6.698;2023-06-14T13:45:50;10.23;;;4.40;;
9898;SDS011;4988;49.238;6.698;2023-06-14T13:48:16;7.57;;;4.50;;
9898;SDS011;4988;49.238;6.698;2023-06-14T13:50:41;8.20;;;4.73;;
9898;SDS011;4988;49.238;6.698;2023-06-14T13:53:07;9.93;;;4.27;;
9898;SDS011;4988;49.238;6.698;2023-06-14T13:55:32;7.83;;;4.30;;
9898;SDS011;4988;49.238;6.698;2023-06-14T13:57:57;8.77;;;4.20;;
9898;SDS011;4988;49.238;6.698;2023-06-14T14:00:23;7.23;;;3.93;;
9898;SDS011;4988;49.238;6.698;2023-06-14T14:03:05;7.87;;;4.07;;
9898;SDS011;4988;49.238;6.698;2023-06-14T14:05:31;7.17;;;4.30;;
9898;SDS011;4988;49.238;6.698;2023-06-14T14:07:57;8.50;;;4.37;;
9898;SDS011;4988;49.238;6.698;2023-06-14T14:10:24;5.80;;;3.80;;
9898;SDS011;4988;49.238;6.698;2023-06-14T14:12:50;8.97;;;4.23;;
9898;SDS011;4988;49.238;6.698;2023-06-14T14:15:16;7.10;;;3.53;;
9898;SDS011;4988;49.238;6.698;2023-06-14T14:17:42;8.37;;;4.07;;
9898;SDS011;4988;49.238;6.698;2023-06-14T14:20:08;6.07;;;3.50;;
9898;SDS011;4988;49.238;6.698;2023-06-14T14:22:33;5.43;;;3.50;;
9898;SDS011;4988;49.238;6.698;2023-06-14T14:24:59;6.33;;;3.67;;
9898;SDS011;4988;49.238;6.698;2023-06-14T14:27:24;6.60;;;3.60;;
9898;SDS011;4988;49.238;6.698;2023-06-14T14:29:50;7.23;;;3.77;;
9898;SDS011;4988;49.238;6.698;2023-06-14T14:32:15;7.90;;;3.67;;
9898;SDS011;4988;49.238;6.698;2023-06-14T14:34:40;6.60;;;3.50;;
9898;SDS011;4988;49.238;6.698;2023-06-14T14:37:06;8.70;;;3.63;;
9898;SDS011;4988;49.238;6.698;2023-06-14T14:39:31;6.47;;;3.67;;
9898;SDS011;4988;49.238;6.698;2023-06-14T14:41:57;8.43;;;4.20;;
9898;SDS011;4988;49.238;6.698;2023-06-14T14:44:22;6.30;;;3.50;;
9898;SDS011;4988;49.238;6.698;2023-06-14T14:46:47;6.20;;;3.80;;
9898;SDS011;4988;49.238;6.698;2023-06-14T14:49:13;6.13;;;3.20;;
9898;SDS011;4988;49.238;6.698;2023-06-14T14:51:39;8.57;;;3.60;;
9898;SDS011;4988;49.238;6.698;2023-06-14T14:54:05;4.87;;;3.20;;
9898;SDS011;4988;49.238;6.698;2023-06-14T14:56:31;8.47;;;3.40;;
9898;SDS011;4988;49.238;6.698;2023-06-14T14:58:56;4.93;;;3.70;;
9898;SDS011;4988;49.238;6.698;2023-06-14T15:01:22;5.60;;;3.20;;
9898;SDS011;4988;49.238;6.698;2023-06-14T15:03:47;5.17;;;3.13;;
9898;SDS011;4988;49.238;6.698;2023-06-14T15:06:13;10.27;;;3.47;;
9898;SDS011;4988;49.238;6.698;2023-06-14T15:08:38;7.37;;;3.50;;
9898;SDS011;4988;49.238;6.698;2023-06-14T15:11:03;8.43;;;3.43;;
9898;SDS011;4988;49.238;6.698;2023-06-14T15:13:29;3.70;;;3.20;;
9898;SDS011;4988;49.238;6.698;2023-06-14T15:15:54;7.43;;;3.40;;
9898;SDS011;4988;49.238;6.698;2023-06-14T15:18:19;7.70;;;3.17;;